Time;durP1;ratioP1;P1;durP2;ratioP2;P2;SDS_P1;SDS_P2;PMS_P1;PMS_P2;Temp;Humidity;BMP_temperature;BMP_pressure;BME280_temperature;BME280_humidity;BME280_pressure;Samples;Min_cycle;Max_cycle;Signal;HPM_P1;HPM_P2
2023/04/18 00:00:16;;;;;;;22.25;10.50;;;9.00;99.90;;;;;;5068886;28;20033;-45
2023/04/18 00:02:42;;;;;;;22.65;10.30;;;9.00;99.90;;;;;;5074377;28;20024;-48
2023/04/18 00:05:08;;;;;;;20.00;9.70;;;9.00;99.90;;;;;;5070918;28;20021;-44
2023/04/18 00:07:34;;;;;;;20.63;9.32;;;9.00;99.90;;;;;;5063457;28;20052;-44
2023/04/18 00:10:01;;;;;;;18.70;8.70;;;9.00;99.90;;;;;;5053394;28;20112;-45
2023/04/18 00:12:27;;;;;;;15.02;8.75;;;9.00;99.90;;;;;;5058974;28;20016;-36
2023/04/18 00:14:52;;;;;;;15.48;8.77;;;9.00;99.90;;;;;;5065101;28;20090;-46
2023/04/18 00:17:19;;;;;;;18.77;8.93;;;9.00;99.90;;;;;;5066981;28;20020;-44
2023/04/18 00:19:45;;;;;;;15.50;8.73;;;9.00;99.90;;;;;;5056325;28;20025;-45
2023/04/18 00:22:11;;;;;;;16.67;8.68;;;8.90;99.90;;;;;;5068466;28;20082;-45
2023/04/18 00:24:38;;;;;;;17.25;8.00;;;8.90;99.90;;;;;;5073618;28;20031;-45
2023/04/18 00:27:04;;;;;;;17.13;8.38;;;8.90;99.90;;;;;;5072132;28;20020;-46
2023/04/18 00:29:33;;;;;;;17.75;8.40;;;8.90;99.90;;;;;;5073906;28;20385;-45
2023/04/18 00:31:58;;;;;;;14.70;8.07;;;8.90;99.90;;;;;;5073872;28;20500;-42
2023/04/18 00:34:24;;;;;;;17.40;8.35;;;8.90;99.90;;;;;;5073637;28;20028;-45
2023/04/18 00:36:49;;;;;;;15.55;7.40;;;8.90;99.90;;;;;;5073855;28;20496;-46
2023/04/18 00:39:15;;;;;;;11.30;7.57;;;8.90;99.90;;;;;;5069125;28;20153;-43
2023/04/18 00:41:41;;;;;;;15.15;7.22;;;8.90;99.90;;;;;;5061382;28;20028;-47
2023/04/18 00:44:06;;;;;;;18.35;7.82;;;8.80;99.90;;;;;;5073237;28;20024;-44
2023/04/18 00:46:32;;;;;;;12.55;7.35;;;8.80;99.90;;;;;;5065543;28;20385;-42
2023/04/18 00:48:57;;;;;;;13.82;7.43;;;8.70;99.90;;;;;;5053407;28;20025;-46
2023/04/18 00:51:24;;;;;;;31.83;6.88;;;8.70;99.90;;;;;;5059626;28;20025;-45
2023/04/18 00:53:50;;;;;;;13.70;7.40;;;8.70;99.90;;;;;;5053733;28;20024;-45
2023/04/18 00:56:16;;;;;;;13.52;7.15;;;8.70;99.90;;;;;;5069184;28;20059;-49
2023/04/18 00:58:42;;;;;;;13.90;6.25;;;8.60;99.90;;;;;;5052967;28;20485;-43
2023/04/18 01:01:08;;;;;;;12.55;6.85;;;8.70;99.90;;;;;;5052942;28;20056;-44
2023/04/18 01:03:34;;;;;;;9.57;5.90;;;8.70;99.90;;;;;;5052499;28;20474;-42
2023/04/18 01:06:00;;;;;;;8.35;5.22;;;8.80;99.90;;;;;;5052536;28;20066;-43
2023/04/18 01:08:26;;;;;;;13.70;6.53;;;8.70;99.90;;;;;;5052742;28;20037;-45
2023/04/18 01:10:52;;;;;;;12.73;6.25;;;8.70;99.90;;;;;;5053201;28;20054;-45
2023/04/18 01:13:19;;;;;;;13.30;6.40;;;8.70;99.90;;;;;;5069989;28;20029;-48
2023/04/18 01:15:47;;;;;;;11.98;6.18;;;8.60;99.90;;;;;;5072030;28;20024;-47
2023/04/18 01:18:17;;;;;;;10.82;6.70;;;8.50;99.90;;;;;;5071946;28;20491;-42
2023/04/18 01:20:48;;;;;;;10.30;5.88;;;8.50;99.90;;;;;;5070267;28;20104;-45
2023/04/18 01:23:15;;;;;;;14.85;5.32;;;8.50;99.90;;;;;;5073230;28;20473;-42
2023/04/18 01:25:42;;;;;;;8.32;4.93;;;8.50;99.90;;;;;;5067571;28;20103;-45
2023/04/18 01:28:07;;;;;;;9.68;5.90;;;8.50;99.90;;;;;;5070863;28;20052;-45
2023/04/18 01:30:33;;;;;;;9.88;5.43;;;8.40;99.90;;;;;;5072905;28;20498;-48
2023/04/18 01:33:03;;;;;;;11.25;5.78;;;8.40;99.90;;;;;;5071677;28;20431;-43
2023/04/18 01:35:29;;;;;;;12.88;5.35;;;8.30;99.90;;;;;;5059311;28;20115;-45
2023/04/18 01:37:56;;;;;;;10.23;6.03;;;8.30;99.90;;;;;;5072826;28;20485;-46
2023/04/18 01:40:22;;;;;;;14.60;5.72;;;8.40;99.90;;;;;;5065024;28;20017;-44
2023/04/18 01:42:48;;;;;;;7.88;4.93;;;8.30;99.90;;;;;;5071590;28;20033;-43
2023/04/18 01:45:15;;;;;;;14.60;5.97;;;8.20;99.90;;;;;;5072704;28;20035;-46
2023/04/18 01:47:42;;;;;;;9.70;5.10;;;8.20;99.90;;;;;;5064708;28;20071;-45
2023/04/18 01:50:07;;;;;;;12.25;5.53;;;8.10;99.90;;;;;;5052815;28;20263;-43
2023/04/18 01:52:33;;;;;;;12.40;5.10;;;8.10;99.90;;;;;;5057658;28;20553;-48
2023/04/18 01:55:01;;;;;;;7.97;4.95;;;8.10;99.90;;;;;;5067771;28;20044;-43
2023/04/18 01:57:27;;;;;;;8.30;5.27;;;8.10;99.90;;;;;;5062508;28;20067;-53
2023/04/18 01:59:53;;;;;;;11.23;4.80;;;8.10;99.90;;;;;;5056611;28;20039;-49
2023/04/18 02:02:19;;;;;;;8.75;5.47;;;8.10;99.90;;;;;;5064514;28;20481;-44
2023/04/18 02:04:45;;;;;;;10.32;4.32;;;8.00;99.90;;;;;;5065044;28;20384;-43
2023/04/18 02:07:11;;;;;;;8.85;4.88;;;8.00;99.90;;;;;;5065680;28;20045;-45
2023/04/18 02:09:37;;;;;;;11.80;4.88;;;7.90;99.90;;;;;;5056870;28;20074;-42
2023/04/18 02:12:02;;;;;;;7.22;4.93;;;7.90;99.90;;;;;;5056688;28;20466;-37
2023/04/18 02:14:32;;;;;;;7.05;4.57;;;7.90;99.90;;;;;;5075479;28;20576;-45
2023/04/18 02:16:58;;;;;;;11.70;5.35;;;7.90;99.90;;;;;;5061630;28;20020;-43
2023/04/18 02:19:24;;;;;;;7.75;5.18;;;7.90;99.90;;;;;;5056128;28;20036;-43
2023/04/18 02:21:50;;;;;;;7.85;5.00;;;7.90;99.90;;;;;;5056329;28;20389;-43
2023/04/18 02:24:16;;;;;;;8.40;4.63;;;7.80;99.90;;;;;;5056327;28;20021;-44
2023/04/18 02:26:45;;;;;;;11.82;4.95;;;7.90;99.90;;;;;;5057022;28;20424;-47
2023/04/18 02:29:11;;;;;;;10.00;5.32;;;7.80;99.90;;;;;;5056446;28;20416;-44
2023/04/18 02:31:39;;;;;;;9.95;4.63;;;7.80;99.90;;;;;;5070480;28;20021;-44
2023/04/18 02:34:04;;;;;;;10.40;5.18;;;7.70;99.90;;;;;;5075684;28;20029;-44
2023/04/18 02:36:30;;;;;;;6.88;4.72;;;7.60;99.90;;;;;;5073370;28;20036;-45
2023/04/18 02:38:56;;;;;;;7.80;5.03;;;7.60;99.90;;;;;;5076155;28;20028;-45
2023/04/18 02:41:22;;;;;;;10.55;5.65;;;7.70;99.90;;;;;;5074910;28;20016;-47
2023/04/18 02:43:48;;;;;;;9.02;5.30;;;7.60;99.90;;;;;;5065325;28;20477;-47
2023/04/18 02:46:14;;;;;;;14.32;6.00;;;7.50;99.90;;;;;;5075915;28;20055;-48
2023/04/18 02:48:40;;;;;;;11.02;5.68;;;7.60;99.90;;;;;;5068096;28;20025;-45
2023/04/18 02:51:07;;;;;;;8.23;5.30;;;7.60;99.90;;;;;;5056132;28;20377;-49
2023/04/18 02:53:34;;;;;;;8.98;5.28;;;7.60;99.90;;;;;;5059736;28;20020;-43
2023/04/18 02:56:00;;;;;;;10.02;5.10;;;7.50;99.90;;;;;;5055753;28;20552;-47
2023/04/18 02:58:26;;;;;;;8.00;5.05;;;7.60;99.90;;;;;;5065129;28;20013;-47
2023/04/18 03:00:53;;;;;;;11.82;5.85;;;7.60;99.90;;;;;;5055879;28;20548;-46
2023/04/18 03:03:19;;;;;;;10.02;5.57;;;7.60;99.90;;;;;;5055237;28;20482;-45
2023/04/18 03:05:45;;;;;;;9.07;5.43;;;7.60;99.90;;;;;;5055599;28;20036;-44
2023/04/18 03:08:11;;;;;;;9.70;5.47;;;7.60;99.90;;;;;;5054304;28;20053;-43
2023/04/18 03:10:37;;;;;;;10.68;5.82;;;7.60;99.90;;;;;;5075485;28;20481;-45
2023/04/18 03:13:03;;;;;;;5.82;4.38;;;7.60;99.90;;;;;;5066799;28;20473;-44
2023/04/18 03:15:31;;;;;;;11.40;5.82;;;7.60;99.90;;;;;;5054069;28;20021;-44
2023/04/18 03:17:57;;;;;;;9.25;4.97;;;7.60;99.90;;;;;;5055306;28;20064;-47
2023/04/18 03:20:23;;;;;;;8.48;4.82;;;7.60;99.90;;;;;;5072529;28;20036;-46
2023/04/18 03:22:49;;;;;;;10.75;5.75;;;7.50;99.90;;;;;;5075248;28;20476;-43
2023/04/18 03:25:15;;;;;;;9.50;5.53;;;7.40;99.90;;;;;;5075196;28;20497;-41
2023/04/18 03:27:42;;;;;;;9.07;5.22;;;7.40;99.90;;;;;;5067273;28;20029;-48
2023/04/18 03:30:08;;;;;;;9.90;5.88;;;7.40;99.90;;;;;;5075337;28;20021;-43
2023/04/18 03:32:35;;;;;;;8.23;4.75;;;7.30;99.90;;;;;;5075138;28;20361;-49
2023/04/18 03:35:01;;;;;;;12.60;5.15;;;7.20;99.90;;;;;;5074944;28;20020;-45
2023/04/18 03:37:27;;;;;;;10.00;5.45;;;7.20;99.90;;;;;;5055071;28;20474;-46
2023/04/18 03:39:53;;;;;;;9.88;5.57;;;7.20;99.90;;;;;;5073181;28;20028;-42
2023/04/18 03:42:18;;;;;;;18.73;6.38;;;7.10;99.90;;;;;;5073666;28;20029;-43
2023/04/18 03:44:44;;;;;;;12.35;6.10;;;7.10;99.90;;;;;;5073509;28;20056;-45
2023/04/18 03:47:10;;;;;;;8.75;5.60;;;7.10;99.90;;;;;;5074776;28;20043;-45
2023/04/18 03:49:36;;;;;;;10.70;5.90;;;7.00;99.90;;;;;;5057587;28;20025;-46
2023/04/18 03:52:02;;;;;;;11.70;6.22;;;7.00;99.90;;;;;;5054741;28;20032;-43
2023/04/18 03:54:27;;;;;;;9.40;5.90;;;7.00;99.90;;;;;;5053771;28;20045;-44
2023/04/18 03:56:53;;;;;;;13.60;6.05;;;6.90;99.90;;;;;;5054549;28;20083;-46
2023/04/18 03:59:19;;;;;;;14.70;6.43;;;6.90;99.90;;;;;;5069888;28;20400;-49
2023/04/18 04:01:44;;;;;;;12.27;5.63;;;6.90;99.90;;;;;;5074530;28;20424;-47
2023/04/18 04:04:12;;;;;;;10.95;6.22;;;6.80;99.90;;;;;;5074330;28;20070;-45
2023/04/18 04:06:38;;;;;;;10.50;6.05;;;6.80;99.90;;;;;;5074468;28;20101;-46
2023/04/18 04:09:03;;;;;;;10.85;5.70;;;6.70;99.90;;;;;;5061865;28;20476;-45
2023/04/18 04:11:29;;;;;;;12.60;6.20;;;6.70;99.90;;;;;;5054342;28;20390;-46
2023/04/18 04:13:55;;;;;;;10.02;5.10;;;6.80;99.90;;;;;;5063901;28;20110;-45
2023/04/18 04:16:21;;;;;;;13.95;6.63;;;6.70;99.90;;;;;;5074218;28;20483;-44
2023/04/18 04:18:46;;;;;;;11.68;7.03;;;6.70;99.90;;;;;;5073197;28;20032;-48
2023/04/18 04:21:12;;;;;;;14.77;6.47;;;6.70;99.90;;;;;;5068535;28;20111;-48
2023/04/18 04:23:40;;;;;;;9.50;5.72;;;6.70;99.90;;;;;;5073793;28;20025;-44
2023/04/18 04:26:07;;;;;;;14.07;6.35;;;6.70;99.90;;;;;;5073734;28;20021;-46
2023/04/18 04:28:34;;;;;;;11.38;6.18;;;6.50;99.90;;;;;;5071862;28;20024;-45
2023/04/18 04:31:02;;;;;;;9.80;5.88;;;6.50;99.90;;;;;;5073945;28;20025;-43
2023/04/18 04:33:28;;;;;;;8.63;4.90;;;6.60;99.90;;;;;;5073878;28;20017;-43
2023/04/18 04:35:54;;;;;;;14.65;7.05;;;6.60;99.90;;;;;;5074082;28;20267;-48
2023/04/18 04:38:23;;;;;;;12.70;5.88;;;6.70;99.90;;;;;;5067347;28;20025;-44
2023/04/18 04:40:50;;;;;;;13.27;5.90;;;6.70;99.90;;;;;;5053713;28;20104;-44
2023/04/18 04:43:16;;;;;;;11.95;6.97;;;6.80;99.90;;;;;;5054773;28;20485;-51
2023/04/18 04:45:43;;;;;;;11.45;6.50;;;6.70;99.90;;;;;;5073505;28;20047;-46
2023/04/18 04:48:09;;;;;;;9.23;4.93;;;6.70;99.90;;;;;;5069544;28;20021;-45
2023/04/18 04:50:37;;;;;;;12.45;6.72;;;6.70;99.90;;;;;;5053691;28;20025;-45
2023/04/18 04:53:03;;;;;;;18.42;6.90;;;6.90;99.90;;;;;;5053780;28;20063;-44
2023/04/18 04:55:29;;;;;;;11.95;6.40;;;6.90;99.90;;;;;;5054135;28;20029;-49
2023/04/18 04:57:55;;;;;;;15.68;7.00;;;6.90;99.90;;;;;;5063988;28;20056;-48
2023/04/18 05:00:21;;;;;;;12.70;6.88;;;6.90;99.90;;;;;;5055548;28;20103;-49
2023/04/18 05:02:47;;;;;;;12.35;6.03;;;7.00;99.90;;;;;;5053303;28;20031;-48
2023/04/18 05:05:13;;;;;;;16.17;6.35;;;7.00;99.90;;;;;;5052995;28;20405;-45
2023/04/18 05:07:39;;;;;;;13.23;6.32;;;7.10;99.90;;;;;;5053098;28;20057;-43
2023/04/18 05:10:06;;;;;;;12.27;7.00;;;7.10;99.90;;;;;;5053206;28;20417;-47
2023/04/18 05:12:32;;;;;;;13.38;7.32;;;7.10;99.90;;;;;;5056020;28;20492;-45
2023/04/18 05:14:58;;;;;;;12.82;7.03;;;7.10;99.90;;;;;;5071077;28;20101;-45
2023/04/18 05:17:23;;;;;;;14.45;7.65;;;7.10;99.90;;;;;;5073156;28;20476;-45
2023/04/18 05:19:49;;;;;;;15.52;7.22;;;7.10;99.90;;;;;;5073169;28;20392;-48
2023/04/18 05:22:15;;;;;;;15.52;7.75;;;7.10;99.90;;;;;;5072279;28;20020;-55
2023/04/18 05:24:41;;;;;;;17.80;7.68;;;7.10;99.90;;;;;;5072909;28;20046;-49
2023/04/18 05:27:07;;;;;;;14.73;6.97;;;7.20;99.90;;;;;;5072917;28;20047;-43
2023/04/18 05:29:33;;;;;;;11.68;7.28;;;7.20;99.90;;;;;;5069410;28;20078;-44
2023/04/18 05:31:58;;;;;;;12.25;7.05;;;7.10;99.90;;;;;;5071655;28;20488;-45
2023/04/18 05:34:24;;;;;;;13.05;6.82;;;7.10;99.90;;;;;;5071701;28;20032;-47
2023/04/18 05:36:50;;;;;;;13.75;6.13;;;7.20;99.90;;;;;;5072737;28;20052;-43
2023/04/18 05:39:16;;;;;;;14.80;7.32;;;7.30;99.90;;;;;;5070459;28;20070;-46
2023/04/18 05:41:42;;;;;;;13.57;6.68;;;7.30;99.90;;;;;;5066352;28;20072;-43
2023/04/18 05:44:08;;;;;;;16.00;8.00;;;7.30;99.90;;;;;;5067123;28;20094;-46
2023/04/18 05:46:34;;;;;;;11.02;6.90;;;7.30;99.90;;;;;;5073040;28;20013;-49
2023/04/18 05:49:00;;;;;;;12.25;6.82;;;7.30;99.90;;;;;;5072697;28;20021;-47
2023/04/18 05:51:27;;;;;;;12.70;7.30;;;7.40;99.90;;;;;;5072944;28;20017;-47
2023/04/18 05:53:53;;;;;;;12.25;7.05;;;7.30;99.90;;;;;;5058183;28;20525;-45
2023/04/18 05:56:19;;;;;;;16.92;6.75;;;7.30;99.90;;;;;;5054318;28;20131;-42
2023/04/18 05:58:46;;;;;;;12.32;6.85;;;7.40;99.90;;;;;;5073003;28;20104;-48
2023/04/18 06:01:17;;;;;;;16.38;7.10;;;7.50;99.90;;;;;;5054993;28;20047;-47
2023/04/18 06:03:43;;;;;;;11.35;6.57;;;7.50;99.90;;;;;;5052434;28;20047;-48
2023/04/18 06:06:09;;;;;;;14.35;6.57;;;7.60;99.90;;;;;;5053649;28;20021;-44
2023/04/18 06:08:35;;;;;;;15.93;7.07;;;7.60;99.90;;;;;;5066495;28;20049;-45
2023/04/18 06:11:01;;;;;;;14.23;7.22;;;7.60;99.90;;;;;;5064903;28;20024;-44
2023/04/18 06:13:27;;;;;;;16.42;7.20;;;7.60;99.90;;;;;;5071115;28;20538;-42
2023/04/18 06:15:52;;;;;;;14.20;7.22;;;7.70;99.90;;;;;;5063579;28;20044;-45
2023/04/18 06:18:18;;;;;;;10.32;6.00;;;7.70;99.90;;;;;;5072456;28;20025;-47
2023/04/18 06:20:44;;;;;;;12.52;7.15;;;7.70;99.90;;;;;;5071364;28;20389;-44
2023/04/18 06:23:10;;;;;;;13.13;6.32;;;7.80;99.90;;;;;;5071283;28;20013;-45
2023/04/18 06:25:36;;;;;;;10.75;6.38;;;7.90;99.90;;;;;;5072333;28;20032;-47
2023/04/18 06:28:02;;;;;;;16.15;7.07;;;7.90;99.90;;;;;;5072088;28;20472;-46
2023/04/18 06:30:28;;;;;;;11.27;6.50;;;7.90;99.90;;;;;;5070369;28;20118;-44
2023/04/18 06:32:54;;;;;;;10.68;6.18;;;8.00;99.90;;;;;;5072672;28;20108;-46
2023/04/18 06:35:19;;;;;;;14.70;7.07;;;8.10;99.90;;;;;;5072372;28;20023;-47
2023/04/18 06:37:45;;;;;;;18.58;6.43;;;8.20;99.90;;;;;;5071477;28;20035;-48
2023/04/18 06:40:11;;;;;;;12.85;6.28;;;8.20;99.90;;;;;;5071081;28;20100;-47
2023/04/18 06:42:37;;;;;;;18.17;7.32;;;8.30;99.90;;;;;;5066189;28;20028;-52
2023/04/18 06:45:05;;;;;;;13.15;6.30;;;8.30;99.90;;;;;;5052845;28;20028;-48
2023/04/18 06:47:31;;;;;;;10.35;6.63;;;8.30;99.90;;;;;;5052662;28;20393;-44
2023/04/18 06:49:56;;;;;;;11.75;6.88;;;8.30;99.90;;;;;;5056079;28;20018;-44
2023/04/18 06:52:22;;;;;;;11.43;6.25;;;8.30;99.90;;;;;;5055844;28;20017;-45
2023/04/18 06:54:48;;;;;;;13.52;6.75;;;8.50;99.90;;;;;;5055539;28;20423;-44
2023/04/18 06:57:14;;;;;;;12.45;7.05;;;8.50;99.90;;;;;;5062610;28;20115;-44
2023/04/18 06:59:40;;;;;;;10.32;6.20;;;8.60;99.90;;;;;;5066064;28;20056;-47
2023/04/18 07:02:07;;;;;;;12.00;6.18;;;8.70;99.90;;;;;;5063795;28;20075;-36
2023/04/18 07:04:32;;;;;;;10.75;5.20;;;9.00;99.90;;;;;;5055091;28;20032;-44
2023/04/18 07:06:58;;;;;;;16.90;7.05;;;9.20;99.90;;;;;;5055557;28;20104;-44
2023/04/18 07:09:24;;;;;;;8.65;5.82;;;9.30;99.90;;;;;;5055072;28;20548;-39
2023/04/18 07:11:51;;;;;;;11.05;6.20;;;9.30;99.90;;;;;;5055078;28;20040;-42
2023/04/18 07:14:18;;;;;;;11.23;6.40;;;9.30;99.90;;;;;;5073823;28;20374;-42
2023/04/18 07:16:45;;;;;;;10.63;6.05;;;9.30;99.90;;;;;;5075347;28;20033;-43
2023/04/18 07:19:11;;;;;;;10.40;6.70;;;9.40;99.90;;;;;;5074079;28;20024;-42
2023/04/18 07:21:39;;;;;;;9.18;5.65;;;9.40;99.90;;;;;;5071250;28;20539;-42
2023/04/18 07:24:05;;;;;;;10.63;6.47;;;9.50;99.90;;;;;;5074805;28;20028;-56
2023/04/18 07:26:31;;;;;;;14.07;5.70;;;9.60;99.90;;;;;;5075179;28;20469;-46
2023/04/18 07:28:57;;;;;;;11.50;6.43;;;9.60;99.90;;;;;;5072922;28;20489;-46
2023/04/18 07:31:24;;;;;;;10.07;5.63;;;9.60;99.90;;;;;;5075091;28;20024;-42
2023/04/18 07:33:50;;;;;;;10.07;5.82;;;9.60;99.90;;;;;;5074055;28;20028;-43
2023/04/18 07:36:17;;;;;;;14.80;5.35;;;9.60;99.90;;;;;;5072562;28;20507;-49
2023/04/18 07:38:43;;;;;;;10.88;5.88;;;9.50;99.90;;;;;;5056404;28;20048;-44
2023/04/18 07:41:09;;;;;;;7.95;5.10;;;9.40;99.90;;;;;;5065737;28;20021;-46
2023/04/18 07:43:35;;;;;;;12.02;5.60;;;9.40;99.90;;;;;;5070244;28;20392;-46
2023/04/18 07:46:00;;;;;;;8.10;5.10;;;9.40;99.90;;;;;;5074359;28;20036;-43
2023/04/18 07:48:26;;;;;;;8.57;5.30;;;9.60;99.90;;;;;;5074875;28;20032;-41
2023/04/18 07:50:53;;;;;;;11.98;5.15;;;9.60;99.90;;;;;;5072448;28;20033;-44
2023/04/18 07:53:19;;;;;;;12.23;5.97;;;9.60;99.90;;;;;;5073455;28;20561;-46
2023/04/18 07:55:45;;;;;;;10.77;5.03;;;9.50;99.90;;;;;;5068639;28;20052;-45
2023/04/18 07:58:11;;;;;;;10.05;5.65;;;9.60;99.90;;;;;;5063936;28;20024;-46
2023/04/18 08:00:41;;;;;;;7.57;5.25;;;9.80;99.90;;;;;;5063825;28;20033;-41
2023/04/18 08:03:09;;;;;;;8.95;5.40;;;9.90;99.90;;;;;;5058542;28;20039;-37
2023/04/18 08:05:35;;;;;;;10.40;5.63;;;9.90;99.90;;;;;;5054155;28;20120;-51
2023/04/18 08:08:01;;;;;;;9.23;5.18;;;10.20;99.90;;;;;;5058763;28;20127;-45
2023/04/18 08:10:27;;;;;;;13.30;5.47;;;10.30;99.90;;;;;;5071438;28;20012;-43
2023/04/18 08:12:53;;;;;;;12.23;5.63;;;10.40;99.90;;;;;;5067445;28;20052;-44
2023/04/18 08:15:19;;;;;;;9.23;5.60;;;10.50;99.90;;;;;;5070582;28;20067;-44
2023/04/18 08:17:47;;;;;;;9.10;5.18;;;10.80;99.90;;;;;;5063489;28;20028;-38
2023/04/18 08:20:14;;;;;;;6.55;4.57;;;11.00;99.90;;;;;;5071402;28;20447;-43
2023/04/18 08:22:40;;;;;;;11.98;4.90;;;11.00;99.90;;;;;;5071130;28;20538;-46
2023/04/18 08:25:06;;;;;;;7.78;4.45;;;11.20;99.90;;;;;;5069205;28;20029;-43
2023/04/18 08:27:32;;;;;;;9.80;4.72;;;11.40;99.90;;;;;;5067274;28;20027;-41
2023/04/18 08:29:58;;;;;;;5.82;4.15;;;11.50;99.90;;;;;;5054820;28;20024;-46
2023/04/18 08:32:24;;;;;;;7.57;4.70;;;11.10;99.90;;;;;;5073782;28;20038;-43
2023/04/18 08:34:50;;;;;;;9.48;4.80;;;11.00;99.90;;;;;;5072680;28;20032;-44
2023/04/18 08:37:16;;;;;;;6.45;4.30;;;11.20;99.90;;;;;;5072848;28;20445;-44
2023/04/18 08:39:42;;;;;;;11.43;5.80;;;11.30;99.90;;;;;;5073932;28;20055;-44
2023/04/18 08:42:09;;;;;;;7.32;4.22;;;11.40;99.90;;;;;;5073699;28;20024;-45
2023/04/18 08:44:36;;;;;;;6.70;4.55;;;11.50;99.90;;;;;;5073258;28;20390;-53
2023/04/18 08:47:02;;;;;;;5.53;4.38;;;11.50;99.90;;;;;;5061130;28;20021;-47
2023/04/18 08:49:30;;;;;;;8.07;4.40;;;11.60;99.90;;;;;;5068798;28;20023;-42
2023/04/18 08:51:59;;;;;;;7.82;4.80;;;11.60;99.90;;;;;;5060652;28;20060;-41
2023/04/18 08:54:29;;;;;;;8.57;5.15;;;11.90;99.90;;;;;;5062535;28;20150;-42
2023/04/18 08:57:11;;;;;;;5.10;3.45;;;12.20;99.90;;;;;;5073589;28;20380;-45
2023/04/18 08:59:38;;;;;;;8.27;4.97;;;12.50;99.90;;;;;;5061630;28;20555;-42
2023/04/18 09:02:07;;;;;;;7.22;3.88;;;12.80;99.90;;;;;;5069020;28;20024;-45
2023/04/18 09:04:36;;;;;;;7.28;4.15;;;12.90;99.90;;;;;;5072993;28;20025;-47
2023/04/18 09:07:04;;;;;;;6.45;4.03;;;13.00;99.90;;;;;;5073367;28;20506;-43
2023/04/18 09:09:42;;;;;;;6.38;4.20;;;12.90;99.90;;;;;;5062246;28;20404;-43
2023/04/18 09:12:10;;;;;;;6.50;3.83;;;12.70;99.90;;;;;;5053938;28;20025;-47
2023/04/18 09:14:36;;;;;;;7.30;3.50;;;12.70;99.90;;;;;;5062436;28;20032;-41
2023/04/18 09:17:04;;;;;;;4.63;3.63;;;12.90;99.90;;;;;;5064698;28;20476;-41
2023/04/18 09:19:30;;;;;;;5.80;4.05;;;13.00;99.90;;;;;;5064004;28;20484;-41
2023/04/18 09:22:00;;;;;;;5.63;4.15;;;13.20;99.90;;;;;;5070445;28;20029;-45
2023/04/18 09:24:28;;;;;;;5.03;3.50;;;12.90;99.90;;;;;;5063790;28;20064;-37
2023/04/18 09:27:00;;;;;;;5.33;3.80;;;12.60;99.90;;;;;;5058459;28;20032;-43
2023/04/18 09:29:44;;;;;;;4.85;3.22;;;12.40;99.90;;;;;;5070738;28;20438;-44
2023/04/18 09:32:18;;;;;;;5.55;3.17;;;12.50;99.90;;;;;;5071677;28;20028;-47
2023/04/18 09:34:44;;;;;;;4.15;3.25;;;13.00;99.90;;;;;;5063650;28;20393;-44
2023/04/18 09:37:12;;;;;;;5.45;4.38;;;13.10;99.90;;;;;;5063151;28;20025;-44
2023/04/18 09:39:39;;;;;;;5.97;3.55;;;13.10;99.90;;;;;;5056105;28;20032;-37
2023/04/18 09:42:07;;;;;;;4.65;3.58;;;13.30;99.90;;;;;;5069352;28;20039;-45
2023/04/18 09:44:33;;;;;;;5.03;3.55;;;13.20;99.90;;;;;;5058781;28;20431;-47
2023/04/18 09:46:59;;;;;;;10.40;3.67;;;13.30;99.90;;;;;;5061807;28;20029;-42
2023/04/18 09:49:26;;;;;;;6.22;3.03;;;13.60;99.90;;;;;;5072636;28;20029;-42
2023/04/18 09:51:54;;;;;;;4.88;3.35;;;13.80;99.90;;;;;;5072959;28;20045;-47
2023/04/18 09:54:22;;;;;;;;;;;13.50;99.90;;;;;;5073397;28;20465;-45
2023/04/18 09:56:52;;;;;;;5.15;3.42;;;13.40;99.90;;;;;;5063547;28;19908;-45
2023/04/18 09:59:48;;;;;;;5.55;3.58;;;13.40;99.90;;;;;;5070345;28;20029;-44
2023/04/18 10:02:19;;;;;;;4.50;3.50;;;13.40;99.90;;;;;;5072875;28;20021;-44
2023/04/18 10:04:46;;;;;;;6.22;3.85;;;13.60;99.90;;;;;;5056708;28;20033;-45
2023/04/18 10:07:13;;;;;;;5.25;3.70;;;13.70;99.90;;;;;;5063500;28;20066;-44
2023/04/18 10:09:43;;;;;;;4.00;3.10;;;13.80;99.90;;;;;;5067702;28;20049;-47
2023/04/18 10:12:11;;;;;;;4.22;3.08;;;13.90;99.90;;;;;;5064129;28;20023;-43
2023/04/18 10:14:40;;;;;;;;;;;14.00;99.90;;;;;;5064816;28;20064;-40
2023/04/18 10:17:06;;;;;;;3.22;2.60;;;14.30;99.90;;;;;;5071300;28;20367;-45
2023/04/18 10:19:31;;;;;;;3.78;3.15;;;14.40;99.90;;;;;;5063348;28;20562;-43
2023/04/18 10:21:59;;;;;;;5.82;3.88;;;14.30;99.90;;;;;;5066504;28;20063;-43
2023/04/18 10:24:44;;;;;;;;;;;13.90;99.90;;;;;;5058133;28;20029;-46
2023/04/18 10:27:09;;;;;;;3.78;3.08;;;13.70;99.90;;;;;;5059515;28;20380;-41
2023/04/18 10:29:52;;;;;;;4.30;2.90;;;13.40;99.90;;;;;;5072789;28;20025;-46
2023/04/18 10:32:22;;;;;;;4.68;3.22;;;13.30;99.90;;;;;;5068182;28;20036;-43
2023/04/18 10:34:52;;;;;;;5.70;3.78;;;13.40;99.90;;;;;;5074674;28;20448;-41
2023/04/18 10:37:18;;;;;;;5.60;3.72;;;13.30;99.90;;;;;;5075483;28;20033;-43
2023/04/18 10:39:53;;;;;;;3.97;3.35;;;13.20;99.90;;;;;;5072923;28;20495;-38
2023/04/18 10:42:38;;;;;;;4.85;3.22;;;13.10;99.90;;;;;;5070495;28;20044;-42
2023/04/18 10:45:23;;;;;;;5.60;3.42;;;13.00;99.90;;;;;;5066236;28;20032;-45
2023/04/18 10:47:49;;;;;;;10.75;3.75;;;12.90;99.90;;;;;;5074003;28;20518;-43
2023/04/18 10:50:16;;;;;;;5.60;3.42;;;12.90;99.90;;;;;;5071357;28;20407;-47
2023/04/18 10:52:42;;;;;;;5.88;3.83;;;12.90;99.90;;;;;;5069546;28;20024;-44
2023/04/18 10:55:25;;;;;;;5.97;3.97;;;12.90;99.90;;;;;;5071538;28;20485;-42
2023/04/18 10:57:54;;;;;;;6.20;4.55;;;12.70;99.90;;;;;;5097282;28;20506;-44
2023/04/18 11:00:22;;;;;;;8.05;4.30;;;12.40;99.90;;;;;;5070514;28;20036;-44
2023/04/18 11:02:55;;;;;;;10.05;4.22;;;12.40;99.90;;;;;;5068926;28;20177;-42
2023/04/18 11:05:27;;;;;;;6.50;4.07;;;12.50;99.90;;;;;;5060938;28;20024;-42
2023/04/18 11:07:53;;;;;;;4.45;3.47;;;12.60;99.90;;;;;;5059933;28;20029;-38
2023/04/18 11:10:22;;;;;;;5.57;3.58;;;12.50;99.90;;;;;;5056764;28;20499;-39
2023/04/18 11:12:48;;;;;;;4.00;3.22;;;12.40;99.90;;;;;;5055088;28;20024;-44
2023/04/18 11:15:16;;;;;;;4.32;3.60;;;12.40;99.90;;;;;;5060717;28;20322;-41
2023/04/18 11:17:42;;;;;;;5.32;3.40;;;12.70;99.90;;;;;;5060018;28;20035;-41
2023/04/18 11:20:13;;;;;;;5.20;3.60;;;13.00;99.90;;;;;;5060390;28;20059;-46
2023/04/18 11:22:59;;;;;;;3.90;2.88;;;13.30;99.90;;;;;;5063158;28;20079;-47
2023/04/18 11:25:31;;;;;;;3.58;2.67;;;13.50;99.90;;;;;;5061233;28;20029;-41
2023/04/18 11:28:01;;;;;;;4.00;3.10;;;13.60;99.90;;;;;;5075070;28;20025;-44
2023/04/18 11:30:34;;;;;;;3.10;2.80;;;13.60;99.90;;;;;;5074987;28;20016;-42
2023/04/18 11:33:04;;;;;;;3.78;2.97;;;13.60;99.90;;;;;;5074987;28;20062;-40
2023/04/18 11:35:30;;;;;;;4.80;2.92;;;13.50;99.90;;;;;;5071768;28;20432;-43
2023/04/18 11:37:56;;;;;;;6.85;2.97;;;13.30;99.90;;;;;;5058122;28;20025;-41
2023/04/18 11:40:21;;;;;;;7.35;3.97;;;13.20;99.90;;;;;;5057845;28;20024;-41
2023/04/18 11:42:47;;;;;;;6.32;3.38;;;13.20;99.90;;;;;;5060769;28;20025;-44
2023/04/18 11:45:14;;;;;;;6.53;3.63;;;13.10;99.90;;;;;;5073692;28;20028;-47
2023/04/18 11:47:41;;;;;;;6.70;3.87;;;13.20;99.90;;;;;;5073479;28;20503;-49
2023/04/18 11:50:09;;;;;;;6.60;3.53;;;13.40;99.90;;;;;;5075016;28;20803;-43
2023/04/18 11:52:36;;;;;;;6.13;3.67;;;13.40;99.90;;;;;;5073707;28;20527;-43
2023/04/18 11:55:17;;;;;;;5.95;3.72;;;13.50;99.90;;;;;;5054712;28;20025;-44
2023/04/18 11:57:49;;;;;;;7.43;4.22;;;13.70;99.90;;;;;;5054915;28;20033;-42
2023/04/18 12:00:15;;;;;;;7.55;4.50;;;13.80;99.90;;;;;;5072058;28;20097;-48
2023/04/18 12:02:44;;;;;;;6.82;4.43;;;13.90;99.90;;;;;;5074556;28;20027;-43
2023/04/18 12:05:13;;;;;;;8.18;4.35;;;14.00;99.90;;;;;;5074450;28;20369;-44
2023/04/18 12:07:47;;;;;;;6.82;4.20;;;14.10;99.90;;;;;;5074281;28;20040;-42
2023/04/18 12:10:19;;;;;;;5.65;4.10;;;14.30;99.90;;;;;;5073498;28;20366;-50
2023/04/18 12:12:53;;;;;;;8.32;4.72;;;14.50;99.90;;;;;;5073041;28;20480;-45
2023/04/18 12:15:22;;;;;;;6.93;4.10;;;14.50;99.90;;;;;;5060777;28;20076;-41
2023/04/18 12:17:50;;;;;;;12.00;5.57;;;14.40;99.90;;;;;;5054151;28;20028;-45
2023/04/18 12:20:17;;;;;;;6.80;4.63;;;14.30;99.90;;;;;;5055545;28;20586;-48
2023/04/18 12:22:46;;;;;;;6.75;3.38;;;14.10;99.90;;;;;;5061519;28;20373;-48
2023/04/18 12:25:23;;;;;;;8.45;4.50;;;14.00;99.90;;;;;;5058982;28;20025;-43
2023/04/18 12:27:49;;;;;;;7.72;4.95;;;13.90;99.90;;;;;;5054968;28;20359;-42
2023/04/18 12:30:15;;;;;;;7.28;4.90;;;13.80;99.90;;;;;;5074018;28;20436;-44
2023/04/18 12:32:43;;;;;;;10.20;4.93;;;13.70;99.90;;;;;;5064451;28;20095;-48
2023/04/18 12:35:09;;;;;;;;;;;13.80;99.90;;;;;;5066784;28;20028;-44
2023/04/18 12:37:34;;;;;;;7.03;4.70;;;14.10;99.90;;;;;;5079583;28;20361;-46
2023/04/18 12:40:00;;;;;;;11.38;5.75;;;14.60;99.90;;;;;;5057464;28;20051;-42
2023/04/18 12:42:25;;;;;;;8.45;4.85;;;14.90;99.90;;;;;;5070037;28;20078;-40
2023/04/18 12:44:51;;;;;;;7.55;5.72;;;14.90;99.90;;;;;;5067780;28;20538;-45
2023/04/18 12:47:17;;;;;;;9.82;5.28;;;15.00;99.90;;;;;;5073027;28;20024;-44